Time;durP1;ratioP1;P1;durP2;ratioP2;P2;SDS_P1;SDS_P2;PMS_P1;PMS_P2;Temp;Humidity;BMP_temperature;BMP_pressure;BME280_temperature;BME280_humidity;BME280_pressure;Samples;Min_cycle;Max_cycle;Signal;HPM_P1;HPM_P2
2021/12/12 00:01:02;;;;;;;6.82;4.25;;;3.70;99.90;;;;;;5073564;28;20227;-68
2021/12/12 00:03:45;;;;;;;6.60;3.33;;;3.70;99.90;;;;;;5073739;28;20187;-68
2021/12/12 00:06:22;;;;;;;7.53;3.72;;;3.70;99.90;;;;;;5073871;28;20200;-68
2021/12/12 00:08:53;;;;;;;6.03;3.60;;;3.70;99.90;;;;;;5073915;28;20199;-68
2021/12/12 00:11:23;;;;;;;9.35;5.10;;;3.70;99.90;;;;;;5073710;28;20188;-68
2021/12/12 00:13:59;;;;;;;9.98;4.20;;;3.70;99.90;;;;;;5073479;28;20256;-69
2021/12/12 00:16:26;;;;;;;8.75;4.40;;;3.70;99.90;;;;;;5073296;28;20194;-68
2021/12/12 00:18:53;;;;;;;7.30;4.57;;;3.70;99.90;;;;;;5073188;28;20216;-68
2021/12/12 00:21:22;;;;;;;8.43;4.28;;;3.70;99.90;;;;;;5073580;28;20216;-68
2021/12/12 00:23:48;;;;;;;3.55;3.25;;;3.70;99.90;;;;;;5073681;28;20204;-68
2021/12/12 00:26:15;;;;;;;9.13;4.55;;;3.70;99.90;;;;;;5055600;28;20199;-68
2021/12/12 00:28:42;;;;;;;8.45;4.00;;;3.70;99.90;;;;;;5073635;28;20204;-69
2021/12/12 00:31:13;;;;;;;4.88;4.05;;;3.60;99.90;;;;;;5073263;28;20596;-68
2021/12/12 00:33:42;;;;;;;9.35;4.45;;;3.60;99.90;;;;;;5073440;28;20200;-68
2021/12/12 00:36:11;;;;;;;11.18;4.25;;;3.60;99.90;;;;;;5073441;28;20219;-69
2021/12/12 00:38:38;;;;;;;8.57;4.10;;;3.60;99.90;;;;;;5073316;28;20211;-68
2021/12/12 00:41:09;;;;;;;7.93;4.40;;;3.70;99.90;;;;;;5073072;28;20288;-68
2021/12/12 00:43:43;;;;;;;16.65;4.30;;;3.70;99.90;;;;;;5072054;28;20566;-69
2021/12/12 00:46:12;;;;;;;7.00;3.63;;;3.70;99.90;;;;;;5073453;28;20261;-68
2021/12/12 00:48:41;;;;;;;5.07;3.00;;;3.70;99.90;;;;;;5073434;28;20204;-68
2021/12/12 00:51:14;;;;;;;6.03;3.35;;;3.70;99.90;;;;;;5072762;28;20235;-68
2021/12/12 00:53:42;;;;;;;5.22;3.05;;;3.80;99.90;;;;;;5072804;28;20600;-69
2021/12/12 00:56:09;;;;;;;8.65;3.80;;;3.80;99.90;;;;;;5073255;28;20207;-69
2021/12/12 00:58:35;;;;;;;6.80;2.80;;;3.80;99.90;;;;;;5072946;28;20732;-68
2021/12/12 01:01:16;;;;;;;6.80;3.42;;;3.80;99.90;;;;;;5073108;28;20220;-68
2021/12/12 01:03:51;;;;;;;9.48;3.17;;;3.80;99.90;;;;;;5071766;28;20310;-68
2021/12/12 01:06:20;;;;;;;7.65;3.53;;;3.80;99.90;;;;;;5072864;28;20593;-68
2021/12/12 01:08:48;;;;;;;4.35;3.17;;;3.80;99.90;;;;;;5072988;28;20211;-68
2021/12/12 01:11:20;;;;;;;8.30;3.30;;;3.80;99.90;;;;;;5075545;28;20226;-68
2021/12/12 01:13:48;;;;;;;5.05;3.30;;;3.80;99.90;;;;;;5076583;28;20202;-68
2021/12/12 01:16:34;;;;;;;11.50;3.58;;;3.80;99.90;;;;;;5076837;28;20204;-67
2021/12/12 01:19:06;;;;;;;8.70;3.10;;;3.70;99.90;;;;;;5076983;28;20184;-67
2021/12/12 01:21:40;;;;;;;8.10;3.25;;;3.70;99.90;;;;;;5076531;28;20230;-67
2021/12/12 01:24:24;;;;;;;5.97;3.17;;;3.70;99.90;;;;;;5077033;28;20554;-68
2021/12/12 01:26:53;;;;;;;4.38;3.10;;;3.60;99.90;;;;;;5076516;28;20180;-68
2021/12/12 01:29:20;;;;;;;16.73;3.28;;;3.60;99.90;;;;;;5076593;28;20203;-68
2021/12/12 01:31:48;;;;;;;3.80;3.15;;;3.60;99.90;;;;;;5076351;28;20208;-68
2021/12/12 01:34:22;;;;;;;6.68;3.17;;;3.50;99.90;;;;;;5076661;28;20560;-68
2021/12/12 01:37:22;;;;;;;6.22;2.80;;;3.50;99.90;;;;;;5076530;28;20203;-68
2021/12/12 01:39:51;;;;;;;5.32;3.13;;;3.40;99.90;;;;;;5076492;28;20204;-68
2021/12/12 01:42:26;;;;;;;7.63;2.65;;;3.50;99.90;;;;;;5074783;28;20220;-68
2021/12/12 01:45:07;;;;;;;7.07;3.50;;;3.50;99.90;;;;;;5076536;28;20565;-68
2021/12/12 01:47:59;;;;;;;5.20;2.78;;;3.60;99.90;;;;;;5076438;28;20218;-68
2021/12/12 01:50:36;;;;;;;3.45;2.20;;;3.60;99.90;;;;;;5075849;28;20231;-68
2021/12/12 01:53:07;;;;;;;5.40;2.85;;;3.60;99.90;;;;;;5076091;28;20184;-68
2021/12/12 01:55:38;;;;;;;7.20;2.85;;;3.60;99.90;;;;;;5076241;28;20268;-68
2021/12/12 01:58:11;;;;;;;7.03;3.38;;;3.60;99.90;;;;;;5076266;28;20184;-68
2021/12/12 02:00:51;;;;;;;6.63;2.40;;;3.60;99.90;;;;;;5076466;28;20185;-69
2021/12/12 02:03:21;;;;;;;8.68;2.10;;;3.60;99.90;;;;;;5076303;28;20568;-70
2021/12/12 02:05:49;;;;;;;5.13;2.60;;;3.60;99.90;;;;;;5074907;28;20204;-70
2021/12/12 02:08:19;;;;;;;3.65;2.40;;;3.60;99.90;;;;;;5075913;28;20204;-70
2021/12/12 02:10:54;;;;;;;6.22;2.45;;;3.60;99.90;;;;;;5075817;28;20196;-70
2021/12/12 02:13:23;;;;;;;4.30;2.33;;;3.70;99.90;;;;;;5075818;28;20183;-69
2021/12/12 02:15:55;;;;;;;4.85;2.47;;;3.70;99.90;;;;;;5075863;28;20196;-69
2021/12/12 02:18:28;;;;;;;16.00;3.20;;;3.70;99.90;;;;;;5075825;28;20652;-70
2021/12/12 02:21:34;;;;;;;5.30;2.20;;;3.70;99.90;;;;;;5075731;28;20203;-70
2021/12/12 02:35:13;;;;;;;9.02;2.85;;;3.40;99.90;;;;;;5075184;28;20631;-70
2021/12/12 02:37:41;;;;;;;6.00;3.33;;;3.30;99.90;;;;;;5075557;28;20245;-70
2021/12/12 02:40:15;;;;;;;4.13;3.30;;;3.20;99.90;;;;;;5075427;28;20207;-70
2021/12/12 02:42:42;;;;;;;8.88;3.65;;;3.20;99.90;;;;;;5074014;28;20614;-70
2021/12/12 02:45:10;;;;;;;7.80;3.33;;;3.10;99.90;;;;;;5075140;28;20199;-70
2021/12/12 02:47:38;;;;;;;8.88;3.95;;;3.10;99.90;;;;;;5075237;28;20200;-70
2021/12/12 02:50:18;;;;;;;8.50;3.92;;;3.10;99.90;;;;;;5074886;28;20262;-70
2021/12/12 02:52:48;;;;;;;4.47;3.63;;;3.00;99.90;;;;;;5075160;28;20181;-70
2021/12/12 02:55:20;;;;;;;9.93;4.38;;;2.90;99.90;;;;;;5075169;28;20192;-70
2021/12/12 02:57:47;;;;;;;8.43;4.00;;;2.90;99.90;;;;;;5074693;28;20180;-70
2021/12/12 03:00:19;;;;;;;4.68;3.88;;;2.80;99.90;;;;;;5074512;28;20212;-70
2021/12/12 03:02:48;;;;;;;8.02;4.10;;;2.80;99.90;;;;;;5074598;28;20226;-70
2021/12/12 03:05:18;;;;;;;9.57;4.72;;;2.80;99.90;;;;;;5074283;28;20200;-69
2021/12/12 03:07:45;;;;;;;11.02;4.60;;;2.70;99.90;;;;;;5072936;28;20203;-69
2021/12/12 03:10:17;;;;;;;10.30;4.78;;;2.70;99.90;;;;;;5074377;28;20678;-69
2021/12/12 03:12:44;;;;;;;12.27;4.70;;;2.70;99.90;;;;;;5074894;28;20485;-70
2021/12/12 03:15:21;;;;;;;11.75;5.07;;;2.60;99.90;;;;;;5073331;28;20265;-70
2021/12/12 03:17:50;;;;;;;8.60;3.97;;;2.60;99.90;;;;;;5074182;28;20655;-70
2021/12/12 03:20:24;;;;;;;9.18;4.90;;;2.60;99.90;;;;;;5074436;28;20233;-70
2021/12/12 03:23:06;;;;;;;10.57;5.00;;;2.60;99.90;;;;;;5074173;28;20261;-70
2021/12/12 03:25:37;;;;;;;8.60;5.15;;;2.50;99.90;;;;;;5074404;28;20184;-70
2021/12/12 03:28:07;;;;;;;10.00;4.60;;;2.50;99.90;;;;;;5074150;28;20269;-70
2021/12/12 03:30:34;;;;;;;9.60;4.43;;;2.40;99.90;;;;;;5074357;28;20196;-70
2021/12/12 03:33:00;;;;;;;11.85;4.93;;;2.40;99.90;;;;;;5074017;28;20207;-70
2021/12/12 03:35:27;;;;;;;11.48;5.95;;;2.40;99.90;;;;;;5074164;28;20597;-69
2021/12/12 03:37:53;;;;;;;8.73;5.88;;;2.30;99.90;;;;;;5074446;28;20206;-70
2021/12/12 03:40:24;;;;;;;7.63;4.68;;;2.30;99.90;;;;;;5073953;28;20200;-70
2021/12/12 03:42:54;;;;;;;14.50;6.10;;;2.20;99.90;;;;;;5074081;28;20219;-70
2021/12/12 03:45:21;;;;;;;6.78;5.63;;;2.20;99.90;;;;;;5074352;28;20207;-70
2021/12/12 03:47:58;;;;;;;14.32;6.50;;;2.10;99.90;;;;;;5074199;28;20196;-70
2021/12/12 03:50:31;;;;;;;6.82;6.07;;;2.10;99.90;;;;;;5073821;28;20250;-69
2021/12/12 03:52:58;;;;;;;7.30;6.60;;;2.10;99.90;;;;;;5074107;28;20199;-70
2021/12/12 03:55:27;;;;;;;13.65;8.13;;;2.10;99.90;;;;;;5073795;28;20713;-70
2021/12/12 03:57:54;;;;;;;13.50;7.72;;;2.00;99.90;;;;;;5074198;28;20208;-70
2021/12/12 04:00:26;;;;;;;11.90;7.40;;;2.00;99.90;;;;;;5073749;28;20725;-70
2021/12/12 04:02:53;;;;;;;13.05;7.65;;;1.90;99.90;;;;;;5073655;28;20204;-70
2021/12/12 04:05:20;;;;;;;9.80;8.38;;;1.90;99.90;;;;;;5073536;28;20207;-70
2021/12/12 04:07:47;;;;;;;14.73;9.10;;;1.90;99.90;;;;;;5073531;28;20203;-70
2021/12/12 04:10:17;;;;;;;15.35;9.20;;;1.80;99.90;;;;;;5073886;28;20215;-69
2021/12/12 04:12:44;;;;;;;14.60;8.70;;;1.80;99.90;;;;;;5073532;28;20273;-70
2021/12/12 04:15:11;;;;;;;14.80;8.75;;;1.80;99.90;;;;;;5073640;28;20682;-70
2021/12/12 04:17:38;;;;;;;16.08;10.10;;;1.80;99.90;;;;;;5073729;28;20203;-70
2021/12/12 04:20:19;;;;;;;10.27;8.88;;;1.80;99.90;;;;;;5073704;28;20273;-70
2021/12/12 04:22:46;;;;;;;19.60;10.18;;;1.70;99.90;;;;;;5073863;28;20204;-70
2021/12/12 04:25:14;;;;;;;15.13;9.40;;;1.70;99.90;;;;;;5073403;28;20379;-70
2021/12/12 04:27:42;;;;;;;13.10;9.15;;;1.70;99.90;;;;;;5073658;28;20203;-70
2021/12/12 04:30:11;;;;;;;17.67;10.30;;;1.70;99.90;;;;;;5073360;28;20277;-69
2021/12/12 04:32:38;;;;;;;14.80;10.85;;;1.60;99.90;;;;;;5073851;28;20203;-70
2021/12/12 04:35:20;;;;;;;13.18;9.77;;;1.60;99.90;;;;;;5073637;28;20213;-69
2021/12/12 04:37:47;;;;;;;14.48;11.77;;;1.70;99.90;;;;;;5073457;28;20541;-69
2021/12/12 04:40:17;;;;;;;17.08;10.00;;;1.70;99.90;;;;;;5073532;28;20212;-69
2021/12/12 04:42:47;;;;;;;21.40;11.52;;;1.60;99.90;;;;;;5073114;28;20228;-70
2021/12/12 04:46:04;;;;;;;22.23;14.43;;;1.60;99.90;;;;;;5074090;28;20200;-70
2021/12/12 04:51:56;;;;;;;18.42;11.95;;;1.60;99.90;;;;;;5077181;28;20232;-68
2021/12/12 04:54:36;;;;;;;21.92;12.60;;;1.60;99.90;;;;;;5077191;28;20223;-68
2021/12/12 04:57:21;;;;;;;21.13;14.27;;;1.50;99.90;;;;;;5077027;28;20234;-68
2021/12/12 04:59:56;;;;;;;20.35;13.00;;;1.60;99.90;;;;;;5075950;28;20199;-68
2021/12/12 05:02:34;;;;;;;24.67;12.85;;;1.60;99.90;;;;;;5076890;28;20603;-68
2021/12/12 05:05:28;;;;;;;24.38;12.75;;;1.60;99.90;;;;;;5077178;28;20567;-68
2021/12/12 05:07:58;;;;;;;24.60;13.25;;;1.60;99.90;;;;;;5076816;28;20250;-68
2021/12/12 05:10:42;;;;;;;22.35;12.95;;;1.60;99.90;;;;;;5077302;28;20196;-68
2021/12/12 05:13:24;;;;;;;22.83;12.65;;;1.60;99.90;;;;;;5076826;28;20187;-68
2021/12/12 05:15:58;;;;;;;25.42;19.48;;;1.60;99.90;;;;;;5077243;28;20196;-68
2021/12/12 05:18:30;;;;;;;69.90;44.67;;;1.70;99.90;;;;;;5076964;28;20234;-68
2021/12/12 05:21:07;;;;;;;33.88;20.02;;;1.70;99.90;;;;;;5076979;28;20187;-68
2021/12/12 05:23:35;;;;;;;114.75;54.03;;;1.70;99.90;;;;;;5076629;28;20208;-68
2021/12/12 05:26:06;;;;;;;25.15;17.10;;;1.80;99.90;;;;;;5076410;28;20683;-68
2021/12/12 05:28:39;;;;;;;51.28;32.10;;;1.80;99.90;;;;;;5076810;28;20180;-68
2021/12/12 05:31:10;;;;;;;29.67;23.00;;;1.80;99.90;;;;;;5076721;28;20184;-68
2021/12/12 05:33:38;;;;;;;48.83;32.95;;;1.80;99.90;;;;;;5076844;28;20188;-68
2021/12/12 05:36:10;;;;;;;39.03;24.80;;;1.80;99.90;;;;;;5076403;28;20211;-68
2021/12/12 05:38:38;;;;;;;20.83;14.45;;;1.80;99.90;;;;;;5076862;28;20214;-68
2021/12/12 05:41:06;;;;;;;52.00;31.15;;;1.80;99.90;;;;;;5076341;28;20256;-68
2021/12/12 05:43:33;;;;;;;86.18;51.42;;;1.80;99.90;;;;;;5076258;28;20223;-68
2021/12/12 05:46:01;;;;;;;43.28;25.88;;;1.80;99.90;;;;;;5076676;28;20211;-68
2021/12/12 05:48:28;;;;;;;24.45;18.10;;;1.80;99.90;;;;;;5076447;28;20208;-68
2021/12/12 05:50:55;;;;;;;25.70;15.43;;;1.90;99.90;;;;;;5076089;28;20287;-68
2021/12/12 05:53:22;;;;;;;23.50;14.68;;;1.90;99.90;;;;;;5076196;28;20219;-68
2021/12/12 05:55:49;;;;;;;21.05;13.45;;;1.90;99.90;;;;;;5075799;28;20582;-68
2021/12/12 05:58:20;;;;;;;22.98;13.25;;;1.90;99.90;;;;;;5075924;28;20212;-68
2021/12/12 06:01:00;;;;;;;20.88;14.05;;;1.90;99.90;;;;;;5075970;28;20196;-68
2021/12/12 06:03:31;;;;;;;23.33;13.27;;;1.90;99.90;;;;;;5076369;28;20216;-68
2021/12/12 06:05:59;;;;;;;18.05;12.45;;;1.90;99.90;;;;;;5075744;28;20633;-68
2021/12/12 06:08:28;;;;;;;17.80;12.73;;;1.90;99.90;;;;;;5075812;28;20211;-68
2021/12/12 06:10:55;;;;;;;22.17;14.48;;;1.90;99.90;;;;;;5075582;28;20196;-68
2021/12/12 06:13:24;;;;;;;23.77;13.88;;;1.90;99.90;;;;;;5075788;28;20211;-68
2021/12/12 06:15:53;;;;;;;18.27;13.27;;;1.90;99.90;;;;;;5075702;28;20207;-69
2021/12/12 06:18:23;;;;;;;16.65;12.48;;;1.90;99.90;;;;;;5076531;28;20207;-68
2021/12/12 06:20:50;;;;;;;19.50;12.88;;;1.90;99.90;;;;;;5076488;28;20208;-68
2021/12/12 06:23:20;;;;;;;17.90;11.70;;;1.80;99.90;;;;;;5077482;28;20280;-68
2021/12/12 06:25:48;;;;;;;21.45;12.00;;;1.80;99.90;;;;;;5075480;28;20238;-68
2021/12/12 06:28:24;;;;;;;20.38;11.20;;;1.80;99.90;;;;;;5075284;28;20203;-68
2021/12/12 06:30:51;;;;;;;22.08;12.50;;;1.80;99.90;;;;;;5075618;28;20180;-68
2021/12/12 06:33:18;;;;;;;22.13;12.88;;;1.80;99.90;;;;;;5075509;28;20207;-68
2021/12/12 06:35:44;;;;;;;24.83;12.90;;;1.80;99.90;;;;;;5074570;28;20618;-68
2021/12/12 06:38:12;;;;;;;22.02;13.00;;;1.90;99.90;;;;;;5075360;28;20200;-68
2021/12/12 06:40:41;;;;;;;16.05;12.13;;;1.90;99.90;;;;;;5075655;28;20278;-68
2021/12/12 06:43:11;;;;;;;20.05;14.27;;;1.90;99.90;;;;;;5075007;28;20227;-68
2021/12/12 06:45:38;;;;;;;20.50;11.48;;;1.90;99.90;;;;;;5075634;28;20207;-67
2021/12/12 06:48:09;;;;;;;22.73;11.93;;;1.90;99.90;;;;;;5073921;28;20204;-68
2021/12/12 06:50:38;;;;;;;18.27;12.75;;;1.90;99.90;;;;;;5075026;28;20257;-68
2021/12/12 06:53:05;;;;;;;35.47;12.65;;;1.90;99.90;;;;;;5074740;28;20211;-68
2021/12/12 06:55:32;;;;;;;18.98;12.90;;;1.90;99.90;;;;;;5074731;28;20212;-68
2021/12/12 06:58:00;;;;;;;22.85;13.20;;;2.00;99.90;;;;;;5074665;28;20200;-68
2021/12/12 07:00:27;;;;;;;17.80;12.00;;;2.00;99.90;;;;;;5075088;28;20733;-68
2021/12/12 07:02:54;;;;;;;20.02;12.75;;;2.00;99.90;;;;;;5073851;28;20235;-68
2021/12/12 07:05:25;;;;;;;14.30;10.75;;;2.00;99.90;;;;;;5075104;28;20196;-68
2021/12/12 07:07:52;;;;;;;16.95;11.77;;;2.00;99.90;;;;;;5074486;28;20184;-68
2021/12/12 07:10:23;;;;;;;15.70;11.10;;;2.00;99.90;;;;;;5075304;28;20204;-68
2021/12/12 07:12:55;;;;;;;22.08;12.30;;;2.00;99.90;;;;;;5074838;28;20184;-68
2021/12/12 07:15:24;;;;;;;18.63;12.13;;;2.10;99.90;;;;;;5074208;28;20219;-68
2021/12/12 07:17:56;;;;;;;22.80;11.27;;;2.10;99.90;;;;;;5074557;28;20207;-68
2021/12/12 07:20:23;;;;;;;21.83;11.98;;;2.10;99.90;;;;;;5074478;28;20207;-68
2021/12/12 07:22:49;;;;;;;15.27;10.50;;;2.10;99.90;;;;;;5074190;28;20219;-68
2021/12/12 07:25:16;;;;;;;12.85;9.93;;;2.10;99.90;;;;;;5074472;28;20268;-68
2021/12/12 07:27:43;;;;;;;14.73;9.93;;;2.10;99.90;;;;;;5074397;28;20577;-68
2021/12/12 07:30:10;;;;;;;21.45;11.90;;;2.10;99.90;;;;;;5073425;28;20620;-68
2021/12/12 07:32:38;;;;;;;13.05;10.45;;;2.20;99.90;;;;;;5074157;28;20563;-68
2021/12/12 07:35:14;;;;;;;16.35;10.90;;;2.20;99.90;;;;;;5073925;28;20207;-68
2021/12/12 07:37:42;;;;;;;17.17;9.80;;;2.20;99.90;;;;;;5074017;28;20706;-67
2021/12/12 07:40:11;;;;;;;14.85;10.55;;;2.20;99.90;;;;;;5074263;28;20199;-67
2021/12/12 07:42:38;;;;;;;15.40;11.00;;;2.20;99.90;;;;;;5073965;28;20220;-67
2021/12/12 07:45:06;;;;;;;18.30;9.50;;;2.20;99.90;;;;;;5073563;28;20207;-67
2021/12/12 07:47:33;;;;;;;14.63;9.35;;;2.30;99.90;;;;;;5065602;28;20215;-67
2021/12/12 07:49:59;;;;;;;11.68;9.07;;;2.30;99.90;;;;;;5053792;28;20542;-68
2021/12/12 07:52:28;;;;;;;15.82;10.05;;;2.30;99.90;;;;;;5054153;28;20590;-67
2021/12/12 07:54:57;;;;;;;15.88;10.57;;;2.30;99.90;;;;;;5053842;28;20554;-67
2021/12/12 07:57:27;;;;;;;12.55;9.25;;;2.40;99.90;;;;;;5053736;28;20207;-67
2021/12/12 07:59:54;;;;;;;12.93;9.45;;;2.40;99.90;;;;;;5054422;28;20664;-68
2021/12/12 08:02:23;;;;;;;20.58;9.20;;;2.40;99.90;;;;;;5053765;28;20224;-68
2021/12/12 08:04:51;;;;;;;12.63;8.35;;;2.40;99.90;;;;;;5053991;28;20245;-68
2021/12/12 08:07:20;;;;;;;14.32;9.40;;;2.40;99.90;;;;;;5053933;28;20208;-67
2021/12/12 08:09:48;;;;;;;14.88;9.05;;;2.40;99.90;;;;;;5053890;28;20200;-67
2021/12/12 08:12:17;;;;;;;14.93;9.55;;;2.50;99.90;;;;;;5053449;28;20269;-67
2021/12/12 08:14:44;;;;;;;13.60;8.70;;;2.40;99.90;;;;;;5053360;28;20622;-67
2021/12/12 08:17:11;;;;;;;11.48;8.52;;;2.50;99.90;;;;;;5053558;28;20212;-67
2021/12/12 08:19:39;;;;;;;14.88;9.80;;;2.50;99.90;;;;;;5052686;28;20217;-67
2021/12/12 08:22:11;;;;;;;11.15;8.75;;;2.50;99.90;;;;;;5053781;28;20201;-68
2021/12/12 08:24:39;;;;;;;13.38;9.50;;;2.50;99.90;;;;;;5053712;28;20201;-68
2021/12/12 08:27:14;;;;;;;21.67;10.05;;;2.50;99.90;;;;;;5053720;28;20245;-67
2021/12/12 08:29:41;;;;;;;13.20;9.80;;;2.50;99.90;;;;;;5053424;28;20188;-68
2021/12/12 08:32:10;;;;;;;13.85;8.95;;;2.60;99.90;;;;;;5052016;28;20260;-68
2021/12/12 08:34:37;;;;;;;15.48;10.23;;;2.60;99.90;;;;;;5053494;28;20197;-68
2021/12/12 08:37:05;;;;;;;10.82;7.65;;;2.60;99.90;;;;;;5053077;28;20208;-67
2021/12/12 08:39:31;;;;;;;12.00;8.30;;;2.60;99.90;;;;;;5071473;28;20210;-67
2021/12/12 08:42:00;;;;;;;13.93;9.85;;;2.60;99.90;;;;;;5073547;28;20203;-67
2021/12/12 08:44:28;;;;;;;10.45;7.80;;;2.70;99.90;;;;;;5073441;28;20253;-68
2021/12/12 08:46:57;;;;;;;13.10;8.93;;;2.70;99.90;;;;;;5073312;28;20249;-67
2021/12/12 08:49:28;;;;;;;14.07;8.52;;;2.70;99.90;;;;;;5073583;28;20564;-68
2021/12/12 08:52:00;;;;;;;17.38;8.65;;;2.80;99.90;;;;;;5073328;28;20646;-68
2021/12/12 08:54:29;;;;;;;13.43;9.57;;;2.80;99.90;;;;;;5073306;28;20212;-68
2021/12/12 08:57:04;;;;;;;15.23;9.48;;;2.90;99.90;;;;;;5073213;28;20204;-68
2021/12/12 08:59:34;;;;;;;11.65;8.55;;;2.80;99.90;;;;;;5073256;28;20188;-68
2021/12/12 09:02:09;;;;;;;18.60;8.85;;;2.80;99.90;;;;;;5073279;28;20188;-68
2021/12/12 09:04:39;;;;;;;15.68;8.65;;;2.90;99.90;;;;;;5073506;28;20184;-68
2021/12/12 09:07:12;;;;;;;12.13;9.60;;;2.80;99.90;;;;;;5073313;28;20187;-68
2021/12/12 09:09:47;;;;;;;14.05;9.50;;;2.90;99.90;;;;;;5073010;28;20184;-68
2021/12/12 09:12:30;;;;;;;11.10;8.63;;;3.00;99.90;;;;;;5073325;28;20203;-68
2021/12/12 09:15:22;;;;;;;13.73;9.60;;;3.00;99.90;;;;;;5072985;28;20185;-68
2021/12/12 09:17:54;;;;;;;14.10;7.72;;;3.00;99.90;;;;;;5072750;28;20199;-68
2021/12/12 09:20:36;;;;;;;12.80;8.80;;;3.00;99.90;;;;;;5073276;28;20199;-68
2021/12/12 09:23:11;;;;;;;9.18;8.25;;;3.00;99.90;;;;;;5073198;28;20235;-68
2021/12/12 09:25:51;;;;;;;12.95;8.40;;;3.10;99.90;;;;;;5073377;28;20547;-68
2021/12/12 09:28:46;;;;;;;10.30;8.43;;;3.10;99.90;;;;;;5073228;28;20200;-68
2021/12/12 09:31:24;;;;;;;14.80;9.00;;;3.20;99.90;;;;;;5073748;28;20181;-68
2021/12/12 09:34:03;;;;;;;10.45;8.60;;;3.20;99.90;;;;;;5076631;28;20267;-68
2021/12/12 09:36:37;;;;;;;9.70;8.68;;;3.20;99.90;;;;;;5076663;28;20199;-68
2021/12/12 09:39:12;;;;;;;11.55;7.45;;;3.20;99.90;;;;;;5076291;28;20214;-68
2021/12/12 09:41:59;;;;;;;11.32;7.53;;;3.20;99.90;;;;;;5076657;28;20233;-68
2021/12/12 09:44:50;;;;;;;10.95;8.15;;;3.20;99.90;;;;;;5076705;28;20204;-68
2021/12/12 09:47:31;;;;;;;9.88;6.93;;;3.30;99.90;;;;;;5076412;28;20192;-68
2021/12/12 09:53:41;;;;;;;8.25;7.30;;;3.40;99.90;;;;;;5065190;28;20629;-68
2021/12/12 09:56:18;;;;;;;9.32;6.88;;;3.50;99.90;;;;;;5076635;28;20196;-68
2021/12/12 09:59:09;;;;;;;7.82;7.10;;;3.50;99.90;;;;;;5076349;28;20184;-69
2021/12/12 10:01:52;;;;;;;10.95;7.00;;;3.50;99.90;;;;;;5076251;28;20208;-68
2021/12/12 10:04:48;;;;;;;8.38;6.88;;;3.50;99.90;;;;;;5076361;28;20215;-69
2021/12/12 10:07:43;;;;;;;12.88;7.28;;;3.50;99.90;;;;;;5076188;28;20188;-68
2021/12/12 10:10:15;;;;;;;9.60;7.10;;;3.50;99.90;;;;;;5076473;28;20234;-69
2021/12/12 10:12:54;;;;;;;11.57;6.20;;;3.50;99.90;;;;;;5075906;28;20264;-68
2021/12/12 10:15:24;;;;;;;9.88;6.60;;;3.40;99.90;;;;;;5076497;28;20184;-68
2021/12/12 10:18:09;;;;;;;10.57;6.47;;;3.50;99.90;;;;;;5074548;28;20632;-68
2021/12/12 10:20:47;;;;;;;13.23;5.95;;;3.60;99.90;;;;;;5076400;28;20212;-68
2021/12/12 10:23:22;;;;;;;8.10;6.38;;;3.50;99.90;;;;;;5074303;28;20223;-68
2021/12/12 10:25:54;;;;;;;8.70;6.35;;;3.50;99.90;;;;;;5075704;28;20658;-68
2021/12/12 10:29:03;;;;;;;7.07;5.68;;;3.50;99.90;;;;;;5075815;28;20203;-68
2021/12/12 10:31:36;;;;;;;9.48;6.07;;;3.60;99.90;;;;;;5053253;28;20211;-69
2021/12/12 10:34:14;;;;;;;7.32;5.75;;;3.60;99.90;;;;;;5053447;28;20192;-68
2021/12/12 10:36:57;;;;;;;6.45;5.90;;;3.60;99.90;;;;;;5058807;28;20543;-67
2021/12/12 10:39:31;;;;;;;8.93;6.25;;;3.70;99.90;;;;;;5074043;28;20207;-68
2021/12/12 10:42:07;;;;;;;8.65;6.65;;;3.70;99.90;;;;;;5075784;28;20545;-68
2021/12/12 10:44:40;;;;;;;8.25;5.45;;;3.80;99.90;;;;;;5074626;28;20216;-68
2021/12/12 10:47:48;;;;;;;10.63;6.93;;;3.80;99.90;;;;;;5075477;28;20207;-67
2021/12/12 10:50:59;;;;;;;6.65;5.53;;;3.80;99.90;;;;;;5062331;28;20625;-67
2021/12/12 10:53:34;;;;;;;7.32;5.75;;;3.80;99.90;;;;;;5052639;28;20228;-66
2021/12/12 10:56:17;;;;;;;8.00;6.05;;;3.90;99.90;;;;;;5072345;28;20200;-67
2021/12/12 10:58:52;;;;;;;8.23;5.55;;;4.00;99.90;;;;;;5075219;28;20188;-67
2021/12/12 11:01:35;;;;;;;7.65;5.93;;;4.00;99.90;;;;;;5074597;28;20187;-66
2021/12/12 11:04:09;;;;;;;10.18;5.20;;;3.90;99.90;;;;;;5074726;28;20219;-67
2021/12/12 11:06:40;;;;;;;9.43;5.70;;;4.00;99.90;;;;;;5074658;28;20195;-66
2021/12/12 11:09:06;;;;;;;7.18;5.20;;;4.10;99.90;;;;;;5074520;28;20655;-67
2021/12/12 11:12:13;;;;;;;8.90;6.00;;;4.10;99.90;;;;;;5074783;28;20208;-67
2021/12/12 11:14:56;;;;;;;6.38;4.78;;;4.10;99.90;;;;;;5035542;28;20207;-67
2021/12/12 11:17:30;;;;;;;11.32;5.60;;;4.20;99.90;;;;;;5073324;28;20215;-67
2021/12/12 11:20:07;;;;;;;8.27;5.75;;;4.30;99.90;;;;;;5074295;28;20190;-67
2021/12/12 11:22:43;;;;;;;9.70;5.28;;;4.40;99.90;;;;;;5074446;28;20203;-67
2021/12/12 11:25:19;;;;;;;6.22;5.40;;;4.40;99.90;;;;;;5074460;28;20274;-67
2021/12/12 11:27:50;;;;;;;12.13;5.72;;;4.40;99.90;;;;;;5074539;28;20188;-67
2021/12/12 11:30:40;;;;;;;6.00;4.82;;;4.30;99.90;;;;;;5074183;28;20616;-67
2021/12/12 11:33:10;;;;;;;9.82;5.50;;;4.40;99.90;;;;;;5074478;28;20196;-67
2021/12/12 11:35:39;;;;;;;8.85;5.75;;;4.30;99.90;;;;;;5074243;28;20204;-67
2021/12/12 11:38:36;;;;;;;7.97;5.13;;;4.30;99.90;;;;;;5074453;28;20204;-68
2021/12/12 11:41:17;;;;;;;9.07;4.70;;;4.40;99.90;;;;;;5071559;28;20208;-67
2021/12/12 11:43:54;;;;;;;5.93;5.07;;;4.30;99.90;;;;;;5073762;28;20625;-68
2021/12/12 11:46:28;;;;;;;10.80;4.10;;;4.30;99.90;;;;;;5074030;28;20180;-68
2021/12/12 11:49:05;;;;;;;7.05;5.05;;;4.30;99.90;;;;;;5074317;28;20602;-67
2021/12/12 11:51:39;;;;;;;11.40;5.13;;;4.40;99.90;;;;;;5074030;28;20227;-67
2021/12/12 11:54:27;;;;;;;8.32;6.00;;;4.40;99.90;;;;;;5073726;28;20227;-67
2021/12/12 11:57:09;;;;;;;8.07;5.70;;;4.40;99.90;;;;;;5073083;28;20344;-68
2021/12/12 12:00:02;;;;;;;17.38;5.32;;;4.50;99.90;;;;;;5075011;28;20204;-68
2021/12/12 12:03:00;;;;;;;10.07;4.38;;;4.50;99.90;;;;;;5073957;28;20188;-68
2021/12/12 12:05:56;;;;;;;7.72;5.25;;;4.60;99.90;;;;;;5074150;28;20291;-68
2021/12/12 12:08:40;;;;;;;6.45;4.88;;;4.60;99.90;;;;;;5073768;28;20585;-67
2021/12/12 12:11:15;;;;;;;5.90;4.90;;;4.50;99.90;;;;;;5073729;28;20262;-67
2021/12/12 12:13:57;;;;;;;8.32;5.15;;;4.40;99.90;;;;;;5073936;28;20180;-67
2021/12/12 12:16:57;;;;;;;9.45;5.03;;;4.40;99.90;;;;;;5073594;28;20717;-68
2021/12/12 12:19:48;;;;;;;6.15;4.95;;;4.40;99.90;;;;;;5073774;28;20214;-68
2021/12/12 12:22:46;;;;;;;7.30;4.75;;;4.50;99.90;;;;;;5073158;28;20654;-68
2021/12/12 12:25:25;;;;;;;5.80;4.95;;;4.50;99.90;;;;;;5073190;28;20207;-67
2021/12/12 12:27:58;;;;;;;6.43;5.30;;;4.50;99.90;;;;;;5073642;28;20194;-68
2021/12/12 12:30:30;;;;;;;6.22;5.40;;;4.50;99.90;;;;;;5073777;28;20187;-67
2021/12/12 12:33:48;;;;;;;8.25;5.18;;;4.50;99.90;;;;;;5073643;28;20333;-68
2021/12/12 12:36:20;;;;;;;7.93;5.10;;;4.60;99.90;;;;;;5073224;28;20542;-68
2021/12/12 12:39:24;;;;;;;7.00;4.57;;;4.60;99.90;;;;;;5070397;28;20209;-68
2021/12/12 12:42:21;;;;;;;7.22;4.55;;;4.60;99.90;;;;;;5073671;28;20204;-67
2021/12/12 12:45:32;;;;;;;6.60;5.13;;;4.70;99.90;;;;;;5073652;28;20606;-67
2021/12/12 12:48:13;;;;;;;10.07;5.50;;;4.80;99.90;;;;;;5068076;28;20569;-68
2021/12/12 12:51:01;;;;;;;6.20;4.15;;;4.80;99.90;;;;;;5072901;28;20227;-68
2021/12/12 12:53:50;;;;;;;7.40;4.28;;;4.90;99.90;;;;;;5072790;28;20220;-68
2021/12/12 12:56:54;;;;;;;11.18;5.65;;;4.90;99.90;;;;;;5072939;28;20192;-68
2021/12/12 12:59:54;;;;;;;10.70;4.85;;;5.00;99.90;;;;;;5073702;28;20200;-68
2021/12/12 13:02:30;;;;;;;7.05;4.63;;;5.00;99.90;;;;;;5072250;28;20204;-68
2021/12/12 13:04:58;;;;;;;6.00;4.32;;;5.10;99.90;;;;;;5052944;28;20216;-68
2021/12/12 13:08:01;;;;;;;6.85;4.55;;;5.20;99.90;;;;;;5056050;28;20204;-68
2021/12/12 13:10:33;;;;;;;5.05;4.18;;;5.30;99.90;;;;;;5057100;28;20230;-68
2021/12/12 13:13:16;;;;;;;5.45;4.55;;;5.30;99.90;;;;;;5055745;28;20550;-68
2021/12/12 13:16:05;;;;;;;6.07;4.32;;;5.30;99.90;;;;;;5057023;28;20181;-68
2021/12/12 13:18:58;;;;;;;4.80;4.40;;;5.30;99.90;;;;;;5056959;28;20181;-68
2021/12/12 13:21:34;;;;;;;8.25;4.80;;;5.20;99.90;;;;;;5056659;28;20182;-68
2021/12/12 13:24:18;;;;;;;5.45;3.40;;;5.20;99.90;;;;;;5056847;28;20223;-68
2021/12/12 13:27:34;;;;;;;7.38;4.80;;;5.20;99.90;;;;;;5056703;28;20203;-68
2021/12/12 13:30:08;;;;;;;5.30;3.75;;;5.30;99.90;;;;;;5056389;28;20563;-68
2021/12/12 13:32:46;;;;;;;13.80;3.72;;;5.30;99.90;;;;;;5056524;28;20207;-68
2021/12/12 13:35:17;;;;;;;8.98;4.60;;;5.20;99.90;;;;;;5075080;28;20210;-68
2021/12/12 13:37:58;;;;;;;6.13;3.97;;;5.30;99.90;;;;;;5076397;28;20632;-68
2021/12/12 13:40:27;;;;;;;4.80;3.75;;;5.30;99.90;;;;;;5076484;28;20540;-67
2021/12/12 13:43:17;;;;;;;8.60;4.10;;;5.30;99.90;;;;;;5076733;28;20208;-68
2021/12/12 13:46:04;;;;;;;6.32;3.95;;;5.30;99.90;;;;;;5076575;28;20184;-68